createdAt,value
2019-02-26T00:00:49.653Z,12.60
2019-02-26T00:05:54.379Z,11.80
2019-02-26T00:11:01.186Z,203.83
2019-02-26T00:16:07.711Z,216.40
2019-02-26T00:21:10.200Z,104.73
2019-02-26T00:26:17.492Z,523.33
2019-02-26T00:36:27.117Z,89.93
2019-02-26T00:41:31.881Z,87.90
2019-02-26T00:46:36.988Z,137.77
2019-02-26T00:51:45.992Z,125.83
2019-02-26T00:57:06.463Z,150.03
2019-02-26T01:02:10.808Z,147.37
2019-02-26T01:07:14.519Z,98.47
2019-02-26T01:22:25.669Z,18.10
2019-02-26T01:27:29.295Z,14.90
2019-02-26T01:32:32.799Z,15.00
2019-02-26T01:37:36.717Z,14.07
2019-02-26T01:42:40.873Z,13.50
2019-02-26T01:47:46.271Z,12.07
2019-02-26T01:52:51.891Z,12.17
2019-02-26T01:57:58.546Z,10.60
2019-02-26T02:03:00.839Z,11.08
2019-02-26T02:08:04.865Z,11.50
2019-02-26T02:13:09.320Z,10.50
2019-02-26T02:18:13.738Z,10.80
2019-02-26T02:23:19.386Z,10.60
2019-02-26T02:28:23.869Z,10.27
2019-02-26T02:33:30.031Z,71.10
2019-02-26T02:38:36.536Z,35.63
2019-02-26T02:43:38.984Z,161.73
2019-02-26T02:48:43.305Z,258.43
2019-02-26T02:53:47.961Z,234.97
2019-02-26T03:03:57.952Z,34.73
2019-02-26T03:14:06.204Z,14.85
2019-02-26T03:19:12.127Z,12.47
2019-02-26T03:24:15.388Z,11.37
2019-02-26T03:29:18.874Z,11.67
2019-02-26T03:34:25.445Z,11.40
2019-02-26T03:39:28.687Z,9.77
2019-02-26T03:44:32.315Z,10.07
2019-02-26T03:49:35.822Z,9.03
2019-02-26T03:54:40.926Z,9.57
2019-02-26T03:59:45.308Z,9.45
2019-02-26T04:04:51.819Z,9.87
2019-02-26T04:09:55.913Z,10.00
2019-02-26T04:14:59.650Z,52.88
2019-02-26T04:20:05.592Z,25.27
2019-02-26T04:25:09.433Z,26.17
2019-02-26T04:30:13.577Z,108.30
2019-02-26T04:35:19.498Z,84.73
2019-02-26T04:40:23.132Z,70.83
2019-02-26T04:45:26.650Z,18.90
2019-02-26T04:50:33.114Z,14.23
2019-02-26T04:55:37.926Z,13.60
2019-02-26T05:00:40.877Z,11.77
2019-02-26T05:05:44.697Z,11.40
2019-02-26T05:10:49.831Z,10.23
2019-02-26T05:15:53.667Z,10.23
2019-02-26T05:20:59.177Z,8.90
2019-02-26T05:31:24.485Z,10.33
2019-02-26T05:41:32.333Z,9.50
2019-02-26T05:46:35.841Z,9.07
2019-02-26T05:51:40.024Z,8.73
2019-02-26T05:56:45.662Z,8.70
2019-02-26T06:01:50.272Z,8.83
2019-02-26T06:17:02.678Z,8.77
2019-02-26T06:22:06.283Z,8.87
2019-02-26T06:27:13.027Z,7.77
2019-02-26T06:32:15.060Z,8.63
2019-02-26T06:37:18.656Z,7.93
2019-02-26T06:42:22.317Z,7.60
2019-02-26T06:47:28.321Z,8.40
2019-02-26T06:57:55.008Z,8.78
2019-02-26T07:02:57.797Z,8.27
2019-02-26T07:13:09.301Z,8.73
2019-02-26T07:18:16.920Z,8.93
2019-02-26T07:23:18.640Z,8.40
2019-02-26T07:28:24.531Z,8.13
2019-02-26T07:33:29.750Z,8.40
2019-02-26T07:38:40.891Z,8.87
2019-02-26T07:43:41.056Z,8.40
2019-02-26T07:48:46.165Z,9.27
2019-02-26T07:53:51.655Z,7.87
2019-02-26T07:58:56.931Z,8.97
2019-02-26T08:04:00.019Z,8.57
2019-02-26T08:09:04.791Z,8.33
2019-02-26T08:14:09.334Z,8.10
2019-02-26T08:19:12.850Z,9.17
2019-02-26T08:24:17.136Z,9.45
2019-02-26T08:29:24.548Z,37.90
2019-02-26T08:34:28.421Z,51.37
2019-02-26T08:39:32.109Z,176.80
2019-02-26T08:44:35.635Z,32.40
2019-02-26T08:49:40.712Z,33.02
2019-02-26T08:54:44.611Z,18.73
2019-02-26T08:59:49.662Z,19.33
2019-02-26T09:04:53.591Z,15.37
2019-02-26T09:09:57.752Z,12.10
2019-02-26T09:15:02.032Z,12.53
2019-02-26T09:20:09.286Z,10.27
2019-02-26T09:25:11.005Z,11.30
2019-02-26T09:30:16.156Z,10.87
2019-02-26T09:35:24.601Z,11.53
2019-02-26T09:45:30.635Z,12.47
2019-02-26T09:50:36.114Z,12.28
2019-02-26T09:55:39.687Z,12.77
2019-02-26T10:00:45.599Z,12.33
2019-02-26T10:05:52.215Z,13.00
2019-02-26T10:10:54.981Z,13.17
2019-02-26T10:16:01.985Z,13.90
2019-02-26T10:21:06.749Z,13.93
2019-02-26T10:26:10.690Z,14.07
2019-02-26T10:31:14.712Z,14.67
2019-02-26T10:36:18.498Z,12.53
2019-02-26T10:41:22.280Z,14.03
2019-02-26T10:46:25.760Z,14.97
2019-02-26T10:51:29.379Z,15.03
2019-02-26T10:56:36.776Z,15.03
2019-02-26T11:01:38.352Z,15.37
2019-02-26T11:06:44.305Z,18.00
2019-02-26T11:11:47.321Z,15.27
2019-02-26T11:16:50.835Z,15.83
2019-02-26T11:21:58.113Z,16.43
2019-02-26T11:27:00.419Z,18.20
2019-02-26T11:32:05.687Z,18.40
2019-02-26T11:37:09.496Z,15.60
2019-02-26T11:42:13.322Z,15.20
2019-02-26T11:47:18.328Z,15.95
2019-02-26T11:52:21.776Z,14.10
2019-02-26T11:57:25.502Z,14.43
2019-02-26T12:12:38.596Z,15.53
2019-02-26T12:17:42.322Z,16.70
2019-02-26T12:22:47.996Z,17.23
2019-02-26T12:27:51.551Z,16.23
2019-02-26T12:32:55.234Z,16.97
2019-02-26T12:37:59.362Z,16.27
2019-02-26T12:43:06.618Z,14.45
2019-02-26T12:48:12.513Z,16.32
2019-02-26T12:53:18.048Z,15.35
2019-02-26T12:58:35.609Z,16.00
2019-02-26T13:03:42.569Z,16.57
2019-02-26T13:08:47.222Z,16.63
2019-02-26T13:13:52.598Z,16.23
2019-02-26T13:18:58.553Z,15.37
2019-02-26T13:24:09.630Z,16.93
2019-02-26T13:29:05.842Z,16.00
2019-02-26T13:49:24.674Z,13.93
2019-02-26T13:54:28.301Z,15.50
2019-02-26T13:59:31.800Z,15.90
2019-02-26T14:04:35.826Z,13.00
2019-02-26T14:09:39.437Z,13.73
2019-02-26T14:19:46.672Z,13.57
2019-02-26T14:24:50.295Z,12.85
2019-02-26T14:29:53.803Z,12.80
2019-02-26T14:34:58.649Z,11.03
2019-02-26T14:40:02.282Z,11.03
2019-02-26T14:45:05.799Z,10.77
2019-02-26T14:50:09.490Z,11.10
2019-02-26T15:00:16.629Z,10.73
2019-02-26T15:05:20.388Z,10.93
2019-02-26T15:10:23.861Z,11.10
2019-02-26T15:15:29.335Z,10.97
2019-02-26T15:20:33.061Z,13.00
2019-02-26T15:25:36.743Z,16.40
2019-02-26T15:30:40.369Z,17.97
2019-02-26T15:35:44.379Z,117.13
2019-02-26T15:40:48.125Z,103.07
2019-02-26T15:45:52.376Z,115.30
2019-02-26T15:50:56.160Z,106.33
2019-02-26T16:01:03.891Z,231.17
2019-02-26T16:06:08.126Z,89.70
2019-02-26T16:11:13.148Z,81.40
2019-02-26T16:16:20.915Z,46.30
2019-02-26T16:21:25.690Z,47.27
2019-02-26T16:26:29.788Z,33.30
2019-02-26T16:31:33.577Z,62.17
2019-02-26T16:36:37.806Z,41.25
2019-02-26T16:41:41.527Z,55.00
2019-02-26T16:46:45.753Z,59.03
2019-02-26T16:51:49.476Z,81.47
2019-02-26T16:56:54.663Z,77.07
2019-02-26T17:01:58.547Z,84.80
2019-02-26T17:12:05.683Z,21.42
2019-02-26T17:17:09.312Z,19.23
2019-02-26T17:22:12.805Z,17.97
2019-02-26T17:27:16.528Z,16.20
2019-02-26T17:37:23.658Z,15.23
2019-02-26T17:42:27.280Z,14.60
2019-02-26T17:47:30.783Z,13.57
2019-02-26T17:52:34.505Z,14.60
2019-02-26T18:02:41.628Z,13.70
2019-02-26T18:12:49.783Z,15.50
2019-02-26T18:17:53.403Z,13.80
2019-02-26T18:22:59.961Z,13.50
2019-02-26T18:28:02.382Z,12.80
2019-02-26T18:33:05.972Z,14.17
2019-02-26T18:38:09.605Z,14.70
2019-02-26T18:43:14.359Z,16.30
2019-02-26T18:48:18.577Z,16.23
2019-02-26T18:53:22.020Z,15.50
2019-02-26T18:58:25.599Z,14.93
2019-02-26T19:03:44.274Z,15.90
2019-02-26T19:08:47.792Z,15.93
2019-02-26T19:13:52.092Z,16.07
2019-02-26T19:18:55.431Z,16.07
2019-02-26T19:23:59.015Z,16.12
2019-02-26T19:29:02.660Z,15.07
2019-02-26T19:34:06.281Z,15.73
2019-02-26T19:39:09.788Z,16.57
2019-02-26T19:44:13.510Z,16.13
2019-02-26T19:54:20.633Z,16.70
2019-02-26T19:59:24.275Z,18.27
2019-02-26T20:04:27.554Z,17.17
2019-02-26T20:09:30.816Z,41.18
2019-02-26T20:14:34.969Z,78.25
2019-02-26T20:19:39.419Z,55.63
2019-02-26T20:24:43.030Z,28.00
2019-02-26T20:29:46.654Z,35.50
2019-02-26T20:34:50.278Z,68.93
2019-02-26T20:39:53.887Z,134.10
2019-02-26T20:44:59.085Z,93.07
2019-02-26T20:50:02.968Z,98.57
2019-02-26T20:55:06.678Z,44.90
2019-02-26T21:00:10.374Z,105.07
2019-02-26T21:05:14.114Z,183.83
2019-02-26T21:10:17.739Z,189.63
2019-02-26T21:15:21.460Z,549.00
2019-02-26T21:20:25.141Z,126.00
2019-02-26T21:25:28.786Z,138.47
2019-02-26T21:30:36.206Z,152.27
2019-02-26T21:35:40.922Z,68.83
2019-02-26T21:40:48.757Z,82.53
2019-02-26T21:45:51.146Z,83.07
2019-02-26T21:50:57.660Z,146.60
2019-02-26T21:56:10.728Z,92.50
2019-02-26T22:01:15.568Z,148.50
2019-02-26T22:06:32.561Z,365.67
2019-02-26T22:11:36.648Z,282.93
2019-02-26T22:16:40.374Z,306.57
2019-02-26T22:21:44.070Z,175.70
2019-02-26T22:26:47.707Z,175.37
2019-02-26T22:31:51.088Z,80.35
2019-02-26T22:36:54.728Z,60.38
2019-02-26T22:41:58.446Z,59.17
2019-02-26T22:47:02.163Z,95.67
2019-02-26T22:52:05.784Z,59.90
2019-02-26T22:57:09.508Z,94.33
2019-02-26T23:07:16.712Z,119.93
2019-02-26T23:12:20.777Z,162.57
2019-02-26T23:17:25.399Z,114.60
2019-02-26T23:22:38.417Z,198.27
2019-02-26T23:27:42.638Z,88.30
2019-02-26T23:32:58.102Z,43.50
2019-02-26T23:38:02.287Z,33.27
2019-02-26T23:43:12.528Z,28.60
2019-02-26T23:48:22.381Z,26.87
2019-02-26T23:53:33.879Z,23.33
2019-02-26T23:58:43.424Z,23.10
